Baker Lake, Canada
Current Conditions -  °F | °C
As of 10:00 AM on Thursday 18 Dec 2014 (Local Time) from CYBK Reporting Station
Light Snow Light Snow  
Wind Chill: -7°   Ceiling: 700
Heat Index:   Visibility: 10mi
Dew Point:   Wind: 7mph
Humidity: 85%   Direction: 50°NE
Pressure: 30.06"   Gusts: NA
Location:  64.32°N, 96.02°W
Report Text: CYBK 181600Z 05006KT 10SM -SN OVC007 M15/M17 A3006 RMK ST8 SLP181
Loading
Personal Weather Stations






























Interactive Weather Map New forecast layout! Learn more

10-Day Weather Forecast

Advertisements
Track Severe Weather on mobile